Airfield :
LOGIN :

Register | Disclaimer

   EN    FR    IT 

 










Legend :    VFR   Marginal VFR   IFR   Intensive IFR   Very Intensive IFR
Visi :
Ceiling :
>= 8 km
>= 3000ft
5 to 8 km
1000 to 3000 ft
1500m to 5 km
500 to 1000 ft
800 to 1500m
200 to 500 ft
< 800m
< 200 ft
Symbols :   Thunderstorms  Fog  Heavy snow  Heavy precipitations  Wind > 20 kt
SIGMETs :     Misc.  Thunderstorms  Icing  Turbulence  Mountain Waves  Volcanic Ashes






- Airport Elevation : 374 ft
- IATA code : LIS


LPPT - Lisboa Portela

CURRENT METAR :
  • 261730Z 30007KT 9999 FEW045 15/07 Q1023

EXPIRED METARs :
  • 261700Z 31008KT 9999 FEW045 16/06 Q1023
  • 261630Z 31006KT 280V340 9999 FEW045 17/07 Q1023
  • 261600Z 31007KT 280V360 9999 FEW045 17/07 Q1023
  • 261530Z 30008KT 270V330 9999 FEW045 17/07 Q1023
  • 261500Z 34011KT 280V360 9999 FEW041 18/06 Q1023

TAF TAF LPPT
Valid from the 26 at 18:00 until the 28 at 00:00 UTC


261700Z 2618/2724 30008KT 9999 FEW040
BECMG 2700/2703 VRB02KT
BECMG 2706/2709 23010KT BKN040
PROB40
TEMPO 2715/2720 6000 -RA SCT012 BKN025



MET'MAP, your aeronautical weather chart ! - Copyright ORBIFLY December 2007 - Disclaimer

ORBIFLY MET'MAP TEAM :

Programming & Development : Alexandra Zaïnal
Concept & original design : Baudouin d'Aumeries
Assistance for programming : Marc-Olivier Méhu
Technical & hardware support : Manuel Goepfert

Contact : metmap@orbifly.com




SOURCES & CREDITS :

   NOAA